createdAt,value
2023-02-05T00:01:43.551Z,8.42
2023-02-05T00:04:11.775Z,8.46
2023-02-05T00:06:41.700Z,8.69
2023-02-05T00:09:10.810Z,7.55
2023-02-05T00:11:41.061Z,8.37
2023-02-05T00:14:11.110Z,8.22
2023-02-05T00:16:39.016Z,8.61
2023-02-05T00:19:09.094Z,7.44
2023-02-05T00:21:39.642Z,6.93
2023-02-05T00:24:18.908Z,8.08
2023-02-05T00:26:49.049Z,8.18
2023-02-05T00:29:19.558Z,8.54
2023-02-05T00:31:50.335Z,8.37
2023-02-05T00:34:20.761Z,8.02
2023-02-05T00:36:50.648Z,8.06
2023-02-05T00:39:21.418Z,7.56
2023-02-05T00:41:51.957Z,7.27
2023-02-05T00:44:19.823Z,7.04
2023-02-05T00:46:50.043Z,6.81
2023-02-05T00:49:23.356Z,7.03
2023-02-05T00:51:51.127Z,7.01
2023-02-05T00:54:20.431Z,6.70
2023-02-05T00:56:48.297Z,6.50
2023-02-05T00:59:20.490Z,7.04
2023-02-05T01:01:52.552Z,6.97
2023-02-05T01:04:20.710Z,6.76
2023-02-05T01:06:51.778Z,6.53
2023-02-05T01:09:25.029Z,7.02
2023-02-05T01:11:54.037Z,7.42
2023-02-05T01:14:21.857Z,7.80
2023-02-05T01:16:57.692Z,7.38
2023-02-05T01:19:35.268Z,7.91
2023-02-05T01:22:04.995Z,6.86
2023-02-05T01:24:35.640Z,7.34
2023-02-05T01:27:03.843Z,7.35
2023-02-05T01:29:32.018Z,7.26
2023-02-05T01:32:05.718Z,7.36
2023-02-05T01:34:35.955Z,7.64
2023-02-05T01:37:05.382Z,7.52
2023-02-05T01:39:37.510Z,7.28
2023-02-05T01:42:06.009Z,7.08
2023-02-05T01:44:36.419Z,7.05
2023-02-05T01:47:04.530Z,7.15
2023-02-05T01:49:39.706Z,7.33
2023-02-05T01:52:15.268Z,7.48
2023-02-05T01:54:53.441Z,7.23
2023-02-05T01:57:24.012Z,7.39
2023-02-05T01:59:54.653Z,7.74
2023-02-05T02:02:25.870Z,8.12
2023-02-05T02:05:07.581Z,7.32
2023-02-05T02:07:37.742Z,7.93
2023-02-05T02:10:08.589Z,7.27
2023-02-05T02:12:38.806Z,7.28
2023-02-05T02:15:10.068Z,7.12
2023-02-05T02:17:40.232Z,7.42
2023-02-05T02:20:11.736Z,7.34
2023-02-05T02:23:10.710Z,7.34
2023-02-05T02:26:08.817Z,6.71
2023-02-05T02:28:45.823Z,7.34
2023-02-05T02:31:15.113Z,6.96
2023-02-05T02:33:49.840Z,7.00
2023-02-05T02:36:19.445Z,6.96
2023-02-05T02:38:52.141Z,6.55
2023-02-05T02:41:26.630Z,7.43
2023-02-05T02:43:57.923Z,7.63
2023-02-05T02:46:32.457Z,7.77
2023-02-05T02:49:07.104Z,7.47
2023-02-05T02:51:44.899Z,7.29
2023-02-05T02:54:15.782Z,7.67
2023-02-05T02:56:43.872Z,6.81
2023-02-05T02:59:20.836Z,7.70
2023-02-05T03:01:54.695Z,7.38
2023-02-05T03:04:30.068Z,7.49
2023-02-05T03:07:02.148Z,7.30
2023-02-05T03:09:34.426Z,7.02
2023-02-05T03:12:02.615Z,6.78
2023-02-05T03:14:32.701Z,7.09
2023-02-05T03:17:03.437Z,6.98
2023-02-05T03:19:31.387Z,7.35
2023-02-05T03:22:02.608Z,7.11
2023-02-05T03:24:36.327Z,6.92
2023-02-05T03:27:09.834Z,6.93
2023-02-05T03:29:44.714Z,7.47
2023-02-05T03:32:24.876Z,6.91
2023-02-05T03:35:02.973Z,7.34
2023-02-05T03:37:38.844Z,7.24
2023-02-05T03:40:12.787Z,7.45
2023-02-05T03:42:48.900Z,7.47
2023-02-05T03:45:32.993Z,7.47
2023-02-05T03:48:19.223Z,7.52
2023-02-05T03:50:55.136Z,7.39
2023-02-05T03:53:26.335Z,7.52
2023-02-05T03:55:59.258Z,7.60
2023-02-05T03:58:32.718Z,7.03
2023-02-05T04:01:05.780Z,7.06
2023-02-05T04:03:33.612Z,7.18
2023-02-05T04:06:01.452Z,6.99
2023-02-05T04:08:32.321Z,6.94
2023-02-05T04:11:02.972Z,7.20
2023-02-05T04:13:31.041Z,7.35
2023-02-05T04:15:59.122Z,7.24
2023-02-05T04:18:32.078Z,7.22
2023-02-05T04:21:02.614Z,6.95
2023-02-05T04:23:30.849Z,7.31
2023-02-05T04:25:59.110Z,6.84
2023-02-05T04:28:32.416Z,7.15
2023-02-05T04:31:00.250Z,6.96
2023-02-05T04:33:28.160Z,6.32
2023-02-05T04:36:03.338Z,6.80
2023-02-05T04:38:40.122Z,6.78
2023-02-05T04:41:08.192Z,6.51
2023-02-05T04:43:36.105Z,6.64
2023-02-05T04:46:07.256Z,6.93
2023-02-05T04:48:35.871Z,6.28
2023-02-05T04:51:12.432Z,6.53
2023-02-05T04:53:40.724Z,6.73
2023-02-05T04:56:18.875Z,7.19
2023-02-05T04:58:47.960Z,6.58
2023-02-05T05:01:20.538Z,6.67
2023-02-05T05:04:00.242Z,6.74
2023-02-05T05:06:39.927Z,6.85
2023-02-05T05:09:10.243Z,6.46
2023-02-05T05:11:53.834Z,6.59
2023-02-05T05:14:21.921Z,6.68
2023-02-05T05:16:51.513Z,6.64
2023-02-05T05:19:28.370Z,6.22
2023-02-05T05:22:00.280Z,6.63
2023-02-05T05:24:32.659Z,6.32
2023-02-05T05:27:01.421Z,6.43
2023-02-05T05:29:29.269Z,6.59
2023-02-05T05:31:59.927Z,6.96
2023-02-05T05:34:27.825Z,6.71
2023-02-05T05:37:02.608Z,6.85
2023-02-05T05:39:50.858Z,6.71
2023-02-05T05:42:39.122Z,6.49
2023-02-05T05:45:08.698Z,6.54
2023-02-05T05:47:42.660Z,6.84
2023-02-05T05:50:26.757Z,6.68
2023-02-05T05:52:59.935Z,6.97
2023-02-05T05:55:28.991Z,6.73
2023-02-05T05:57:57.776Z,6.60
2023-02-05T06:00:28.466Z,6.41
2023-02-05T06:02:58.384Z,6.11
2023-02-05T06:05:31.572Z,6.13
2023-02-05T06:08:03.227Z,5.70
2023-02-05T06:10:35.531Z,6.14
2023-02-05T06:13:06.364Z,5.69
2023-02-05T06:15:34.625Z,6.27
2023-02-05T06:18:02.582Z,6.10
2023-02-05T06:20:34.908Z,5.92
2023-02-05T06:23:07.415Z,6.27
2023-02-05T06:25:36.048Z,5.75
2023-02-05T06:28:03.975Z,5.83
2023-02-05T06:30:32.113Z,6.11
2023-02-05T06:33:02.908Z,6.28
2023-02-05T06:35:32.706Z,5.83
2023-02-05T06:38:03.665Z,6.06
2023-02-05T06:40:36.060Z,6.16
2023-02-05T06:43:04.174Z,6.60
2023-02-05T06:45:34.421Z,6.03
2023-02-05T06:48:07.919Z,5.99
2023-02-05T06:50:43.229Z,6.19
2023-02-05T06:53:11.909Z,6.14
2023-02-05T06:55:42.649Z,6.31
2023-02-05T06:58:15.747Z,6.63
2023-02-05T07:00:50.778Z,6.94
2023-02-05T07:03:21.109Z,7.29
2023-02-05T07:05:49.563Z,7.29
2023-02-05T07:08:17.912Z,6.76
2023-02-05T07:10:47.548Z,7.16
2023-02-05T07:13:27.944Z,7.23
2023-02-05T07:16:00.373Z,6.88
2023-02-05T07:18:30.170Z,6.86
2023-02-05T07:20:58.024Z,6.69
2023-02-05T07:23:30.969Z,6.70
2023-02-05T07:26:03.946Z,6.67
2023-02-05T07:28:32.385Z,6.28
2023-02-05T07:31:04.325Z,6.43
2023-02-05T07:33:36.342Z,6.25
2023-02-05T07:36:11.068Z,6.48
2023-02-05T07:38:39.359Z,6.71
2023-02-05T07:41:17.306Z,7.10
2023-02-05T07:43:49.221Z,6.52
2023-02-05T07:46:18.264Z,6.58
2023-02-05T07:48:47.360Z,6.93
2023-02-05T07:51:17.857Z,6.83
2023-02-05T07:53:49.197Z,7.36
2023-02-05T07:56:25.892Z,6.98
2023-02-05T07:58:53.828Z,7.21
2023-02-05T08:01:22.919Z,7.72
2023-02-05T08:03:54.136Z,8.24
2023-02-05T08:06:21.960Z,8.01
2023-02-05T08:08:51.778Z,8.19
2023-02-05T08:11:24.433Z,7.87
2023-02-05T08:13:52.520Z,7.67
2023-02-05T08:16:22.373Z,7.52
2023-02-05T08:18:51.190Z,8.09
2023-02-05T08:21:21.839Z,8.40
2023-02-05T08:23:49.795Z,8.59
2023-02-05T08:26:25.786Z,8.66
2023-02-05T08:28:53.595Z,8.74
2023-02-05T08:31:24.954Z,9.12
2023-02-05T08:33:54.941Z,9.07
2023-02-05T08:36:23.135Z,9.35
2023-02-05T08:38:51.059Z,9.18
2023-02-05T08:41:19.286Z,9.14
2023-02-05T08:43:52.096Z,9.03
2023-02-05T08:46:31.632Z,9.13
2023-02-05T08:49:08.072Z,9.03
2023-02-05T08:51:37.880Z,8.41
2023-02-05T08:54:09.322Z,8.99
2023-02-05T08:56:37.223Z,9.52
2023-02-05T08:59:08.401Z,9.11
2023-02-05T09:01:37.418Z,9.42
2023-02-05T09:04:20.433Z,9.44
2023-02-05T09:06:49.423Z,9.16
2023-02-05T09:09:18.892Z,9.23
2023-02-05T09:11:48.578Z,9.11
2023-02-05T09:14:22.346Z,9.08
2023-02-05T09:16:52.831Z,8.71
2023-02-05T09:19:29.800Z,8.97
2023-02-05T09:21:57.668Z,8.19
2023-02-05T09:24:25.938Z,8.70
2023-02-05T09:26:57.301Z,8.49
2023-02-05T09:29:26.865Z,8.93
2023-02-05T09:31:56.809Z,9.10
2023-02-05T09:34:27.378Z,8.36
2023-02-05T09:36:55.344Z,7.98
2023-02-05T09:40:02.217Z,8.49
2023-02-05T09:42:22.954Z,8.69
2023-02-05T09:45:00.672Z,7.82
2023-02-05T09:47:34.191Z,8.70
2023-02-05T09:50:08.768Z,8.54
2023-02-05T09:52:43.658Z,8.16
2023-02-05T09:55:20.680Z,8.82
2023-02-05T09:57:50.579Z,8.58
2023-02-05T10:00:30.304Z,8.35
2023-02-05T10:03:03.848Z,8.27
2023-02-05T10:05:36.240Z,8.19
2023-02-05T10:08:12.753Z,8.33
2023-02-05T10:10:47.963Z,8.29
2023-02-05T10:13:30.264Z,8.57
2023-02-05T10:16:08.235Z,9.00
2023-02-05T10:18:45.556Z,8.52
2023-02-05T10:21:38.093Z,9.08
2023-02-05T10:24:20.632Z,8.71
2023-02-05T10:26:53.522Z,8.46
2023-02-05T10:29:28.919Z,8.96
2023-02-05T10:32:11.706Z,9.18
2023-02-05T10:34:52.951Z,9.38
2023-02-05T10:37:32.595Z,9.79
2023-02-05T10:40:01.020Z,9.50
2023-02-05T10:42:42.780Z,9.69
2023-02-05T10:45:21.457Z,9.47
2023-02-05T10:48:06.407Z,9.84
2023-02-05T10:50:50.408Z,9.96
2023-02-05T10:53:23.216Z,9.63
2023-02-05T10:55:52.748Z,9.06
2023-02-05T10:58:37.259Z,8.26
2023-02-05T11:01:06.522Z,8.89
2023-02-05T11:03:54.043Z,8.33
2023-02-05T11:06:25.516Z,8.12
2023-02-05T11:09:02.039Z,8.83
2023-02-05T11:11:31.695Z,8.07
2023-02-05T11:14:07.897Z,8.05
2023-02-05T11:16:43.285Z,8.66
2023-02-05T11:19:24.256Z,8.71
2023-02-05T11:21:54.690Z,9.14
2023-02-05T11:24:31.762Z,8.78
2023-02-05T11:27:30.706Z,9.15
2023-02-05T11:30:17.804Z,8.90
2023-02-05T11:32:51.961Z,8.42
2023-02-05T11:35:27.543Z,8.84
2023-02-05T11:38:07.000Z,8.53
2023-02-05T11:40:35.704Z,8.25
2023-02-05T11:43:11.584Z,8.84
2023-02-05T11:45:42.249Z,8.27
2023-02-05T11:48:25.514Z,9.00
2023-02-05T11:50:59.815Z,8.98
2023-02-05T11:53:30.216Z,8.29
2023-02-05T11:56:00.570Z,8.29
2023-02-05T11:58:37.029Z,8.95
2023-02-05T12:01:21.527Z,8.79
2023-02-05T12:04:00.036Z,8.61
2023-02-05T12:06:37.285Z,8.09
2023-02-05T12:09:07.912Z,6.88
2023-02-05T12:12:12.647Z,8.11
2023-02-05T12:14:49.590Z,8.28
2023-02-05T12:17:34.886Z,7.73
2023-02-05T12:20:14.743Z,7.63
2023-02-05T12:23:20.033Z,8.65
2023-02-05T12:25:59.829Z,7.81
2023-02-05T12:28:35.390Z,7.23
2023-02-05T12:31:14.664Z,6.81
2023-02-05T12:33:52.014Z,7.03
2023-02-05T12:36:34.774Z,6.77
2023-02-05T12:39:18.113Z,6.33
2023-02-05T12:41:50.503Z,6.72
2023-02-05T12:44:32.314Z,6.50
2023-02-05T12:47:10.510Z,6.72
2023-02-05T12:49:55.373Z,7.20
2023-02-05T12:52:32.916Z,6.02
2023-02-05T12:55:11.713Z,5.68
2023-02-05T12:57:53.946Z,6.00
2023-02-05T13:00:24.950Z,5.39
2023-02-05T13:03:00.314Z,6.22
2023-02-05T13:05:33.315Z,5.47
2023-02-05T13:08:08.968Z,5.61
2023-02-05T13:10:45.321Z,5.06
2023-02-05T13:13:17.236Z,5.30
2023-02-05T13:15:56.970Z,5.48
2023-02-05T13:18:33.698Z,5.42
2023-02-05T13:21:23.722Z,5.51
2023-02-05T13:24:11.643Z,5.09
2023-02-05T13:27:02.234Z,5.38
2023-02-05T13:29:36.388Z,5.32
2023-02-05T13:32:15.956Z,5.14
2023-02-05T13:34:49.831Z,5.57
2023-02-05T13:37:52.880Z,5.40
2023-02-05T13:40:38.287Z,5.70
2023-02-05T13:43:43.512Z,5.37
2023-02-05T13:46:27.395Z,5.80
2023-02-05T13:49:25.981Z,5.20
2023-02-05T13:52:12.431Z,4.64
2023-02-05T13:55:16.553Z,4.41
2023-02-05T13:58:15.027Z,4.36
2023-02-05T14:00:47.176Z,4.53
2023-02-05T14:03:35.747Z,4.71
2023-02-05T14:06:29.674Z,5.16
2023-02-05T14:09:04.531Z,5.13
2023-02-05T14:11:56.331Z,5.74
2023-02-05T14:14:32.226Z,5.68
2023-02-05T14:18:03.477Z,6.00
2023-02-05T14:20:34.861Z,6.33
2023-02-05T14:23:04.110Z,6.28
2023-02-05T14:26:09.979Z,7.09
2023-02-05T14:28:51.384Z,6.91
2023-02-05T14:31:48.408Z,7.41
2023-02-05T14:34:49.327Z,6.67
2023-02-05T14:37:39.190Z,6.80
2023-02-05T14:40:23.484Z,7.49
2023-02-05T14:42:57.075Z,5.71
2023-02-05T14:45:30.611Z,5.75
2023-02-05T14:48:01.804Z,5.43
2023-02-05T14:50:31.492Z,6.32
2023-02-05T14:53:00.875Z,6.20
2023-02-05T14:55:34.801Z,5.74
2023-02-05T14:58:11.660Z,6.27
2023-02-05T15:00:41.846Z,6.41
2023-02-05T15:03:25.157Z,7.37
2023-02-05T15:06:05.053Z,6.76
2023-02-05T15:08:47.713Z,6.63
2023-02-05T15:11:21.786Z,6.40
2023-02-05T15:14:24.507Z,6.02
2023-02-05T15:17:39.664Z,6.02
2023-02-05T15:20:23.659Z,5.78
2023-02-05T15:22:58.019Z,6.64
2023-02-05T15:25:41.893Z,6.32
2023-02-05T15:28:22.163Z,5.99
2023-02-05T15:31:08.121Z,6.12
2023-02-05T15:33:43.757Z,7.07
2023-02-05T15:36:24.151Z,6.49
2023-02-05T15:39:04.717Z,6.71
2023-02-05T15:41:36.316Z,7.51
2023-02-05T15:44:05.112Z,6.16
2023-02-05T15:46:39.329Z,6.99
2023-02-05T15:49:13.916Z,6.39
2023-02-05T15:51:42.684Z,6.46
2023-02-05T15:54:20.095Z,7.48
2023-02-05T15:56:52.523Z,6.86
2023-02-05T15:59:26.152Z,7.82
2023-02-05T16:02:02.150Z,7.82
2023-02-05T16:04:32.174Z,8.30
2023-02-05T16:07:02.519Z,8.13
2023-02-05T16:09:44.887Z,8.35
2023-02-05T16:12:13.351Z,8.39
2023-02-05T16:14:45.960Z,8.40
2023-02-05T16:17:17.686Z,7.73
2023-02-05T16:19:49.560Z,7.56
2023-02-05T16:22:30.645Z,7.42
2023-02-05T16:25:07.998Z,7.37
2023-02-05T16:27:38.634Z,7.11
2023-02-05T16:30:13.986Z,7.22
2023-02-05T16:32:47.158Z,7.23
2023-02-05T16:35:25.866Z,7.39
2023-02-05T16:37:54.504Z,7.24
2023-02-05T16:40:35.399Z,7.30
2023-02-05T16:43:21.546Z,7.15
2023-02-05T16:46:23.648Z,7.01
2023-02-05T16:48:58.994Z,6.91
2023-02-05T16:51:36.473Z,7.07
2023-02-05T16:54:25.753Z,6.97
2023-02-05T16:57:00.721Z,6.86
2023-02-05T16:59:31.938Z,6.91
2023-02-05T17:02:06.268Z,7.14
2023-02-05T17:04:37.086Z,7.01
2023-02-05T17:07:19.813Z,6.62
2023-02-05T17:09:58.626Z,6.81
2023-02-05T17:12:40.897Z,6.82
2023-02-05T17:15:35.359Z,6.92
2023-02-05T17:18:22.383Z,7.03
2023-02-05T17:20:51.259Z,6.59
2023-02-05T17:23:27.429Z,6.13
2023-02-05T17:25:58.891Z,6.67
2023-02-05T17:28:34.421Z,6.62
2023-02-05T17:31:05.572Z,6.22
2023-02-05T17:33:33.727Z,6.39
2023-02-05T17:36:05.833Z,6.03
2023-02-05T17:38:33.748Z,6.61
2023-02-05T17:41:24.144Z,6.78
2023-02-05T17:43:57.537Z,6.43
2023-02-05T17:46:25.446Z,6.29
2023-02-05T17:48:55.420Z,6.51
2023-02-05T17:51:24.642Z,6.32
2023-02-05T17:53:53.452Z,6.45
2023-02-05T17:56:23.824Z,6.61
2023-02-05T17:58:58.816Z,6.23
2023-02-05T18:01:26.859Z,6.42
2023-02-05T18:04:00.163Z,6.66
2023-02-05T18:06:28.077Z,6.61
2023-02-05T18:08:57.839Z,6.55
2023-02-05T18:11:26.081Z,6.50
2023-02-05T18:13:59.716Z,6.30
2023-02-05T18:16:39.400Z,6.38
2023-02-05T18:19:07.437Z,6.27
2023-02-05T18:21:38.779Z,6.48
2023-02-05T18:24:09.294Z,6.15
2023-02-05T18:26:38.448Z,6.07
2023-02-05T18:29:08.387Z,6.13
2023-02-05T18:31:41.942Z,5.86
2023-02-05T18:34:10.500Z,6.07
2023-02-05T18:36:39.954Z,5.79
2023-02-05T18:39:09.921Z,6.26
2023-02-05T18:41:39.005Z,6.15
2023-02-05T18:44:10.176Z,5.91
2023-02-05T18:46:42.189Z,5.97
2023-02-05T18:49:10.981Z,5.95
2023-02-05T18:51:42.087Z,5.12
2023-02-05T18:54:12.643Z,5.58
2023-02-05T18:56:40.735Z,5.19
2023-02-05T18:59:15.560Z,5.50
2023-02-05T19:01:46.541Z,5.56
2023-02-05T19:04:21.064Z,5.43
2023-02-05T19:06:53.633Z,4.99
2023-02-05T19:09:22.754Z,4.70
2023-02-05T19:11:54.596Z,4.49
2023-02-05T19:14:26.855Z,4.70
2023-02-05T19:16:56.821Z,5.23
2023-02-05T19:19:26.469Z,4.94
2023-02-05T19:21:57.636Z,4.49
2023-02-05T19:24:27.377Z,4.79
2023-02-05T19:26:59.209Z,4.85
2023-02-05T19:29:38.277Z,5.05
2023-02-05T19:32:11.907Z,4.46
2023-02-05T19:34:43.423Z,4.69
2023-02-05T19:37:16.458Z,4.37
2023-02-05T19:39:44.308Z,4.49
2023-02-05T19:42:15.073Z,4.17
2023-02-05T19:44:42.916Z,4.47
2023-02-05T19:47:13.331Z,4.73
2023-02-05T19:49:41.601Z,4.27
2023-02-05T19:52:09.913Z,3.95
2023-02-05T19:54:40.617Z,4.39
2023-02-05T19:57:10.652Z,4.35
2023-02-05T19:59:43.070Z,3.98
2023-02-05T20:02:17.131Z,3.90
2023-02-05T20:04:50.069Z,3.91
2023-02-05T20:07:22.656Z,3.75
2023-02-05T20:09:53.363Z,3.47
2023-02-05T20:12:21.277Z,3.80
2023-02-05T20:14:52.971Z,3.73
2023-02-05T20:17:22.454Z,4.16
2023-02-05T20:19:59.609Z,3.77
2023-02-05T20:22:33.544Z,3.80
2023-02-05T20:25:01.387Z,3.90
2023-02-05T20:27:29.491Z,4.10
2023-02-05T20:30:18.181Z,4.06
2023-02-05T20:32:49.302Z,4.16
2023-02-05T20:35:18.420Z,3.50
2023-02-05T20:37:46.402Z,4.41
2023-02-05T20:40:16.595Z,4.43
2023-02-05T20:42:48.352Z,4.22
2023-02-05T20:45:18.901Z,4.06
2023-02-05T20:47:48.150Z,4.16
2023-02-05T20:50:16.360Z,4.39
2023-02-05T20:52:50.288Z,4.39
2023-02-05T20:55:18.317Z,4.29
2023-02-05T20:57:49.468Z,4.18
2023-02-05T21:00:22.188Z,3.73
2023-02-05T21:02:53.387Z,3.91
2023-02-05T21:05:21.268Z,4.03
2023-02-05T21:07:49.273Z,4.38
2023-02-05T21:10:22.276Z,4.08
2023-02-05T21:12:56.989Z,4.49
2023-02-05T21:15:28.523Z,4.82
2023-02-05T21:17:58.796Z,4.82
2023-02-05T21:20:26.769Z,4.85
2023-02-05T21:22:56.304Z,4.75
2023-02-05T21:25:24.769Z,4.68
2023-02-05T21:27:55.272Z,5.00
2023-02-05T21:30:26.419Z,4.85
2023-02-05T21:33:03.632Z,4.61
2023-02-05T21:35:33.268Z,4.23
2023-02-05T21:38:03.419Z,4.43
2023-02-05T21:40:32.387Z,4.54
2023-02-05T21:43:00.313Z,4.42
2023-02-05T21:45:28.193Z,4.34
2023-02-05T21:48:02.049Z,4.05
2023-02-05T21:50:33.755Z,4.23
2023-02-05T21:53:06.097Z,4.21
2023-02-05T21:55:35.785Z,4.37
2023-02-05T21:58:03.647Z,4.30
2023-02-05T22:00:36.554Z,4.63
2023-02-05T22:03:04.536Z,4.84
2023-02-05T22:05:35.619Z,5.13
2023-02-05T22:08:05.900Z,5.01
2023-02-05T22:10:34.196Z,4.72
2023-02-05T22:13:05.227Z,4.93
2023-02-05T22:15:42.790Z,4.84
2023-02-05T22:18:10.813Z,4.63
2023-02-05T22:20:41.199Z,4.97
2023-02-05T22:23:12.882Z,4.94
2023-02-05T22:25:47.236Z,4.98
2023-02-05T22:28:17.198Z,5.00
2023-02-05T22:30:45.246Z,4.97
2023-02-05T22:33:17.054Z,5.17
2023-02-05T22:35:45.232Z,5.44
2023-02-05T22:38:15.622Z,5.43
2023-02-05T22:40:44.687Z,5.02
2023-02-05T22:43:12.632Z,5.48
2023-02-05T22:45:42.334Z,5.20
2023-02-05T22:48:10.684Z,5.06
2023-02-05T22:50:42.941Z,5.10
2023-02-05T22:53:14.099Z,4.97
2023-02-05T22:55:43.798Z,4.92
2023-02-05T22:58:11.899Z,5.11
2023-02-05T23:00:41.553Z,5.21
2023-02-05T23:03:11.442Z,5.32
2023-02-05T23:05:45.630Z,5.54
2023-02-05T23:08:14.872Z,5.57
2023-02-05T23:10:49.732Z,5.27
2023-02-05T23:13:18.173Z,5.18
2023-02-05T23:15:53.219Z,4.97
2023-02-05T23:18:21.420Z,4.97
2023-02-05T23:20:49.593Z,5.03
2023-02-05T23:23:26.202Z,5.06
2023-02-05T23:25:55.566Z,5.23
2023-02-05T23:28:23.606Z,4.92
2023-02-05T23:30:54.130Z,4.57
2023-02-05T23:33:22.951Z,4.77
2023-02-05T23:35:50.789Z,5.03
2023-02-05T23:38:18.600Z,5.08
2023-02-05T23:40:46.778Z,4.87
2023-02-05T23:43:17.575Z,4.94
2023-02-05T23:45:45.565Z,4.63
2023-02-05T23:48:13.777Z,4.64
2023-02-05T23:50:43.817Z,4.56
2023-02-05T23:53:12.203Z,4.65
2023-02-05T23:55:40.931Z,4.66
2023-02-05T23:58:09.308Z,2.57
